sensor_id;sensor_type;location;lat;lon;timestamp;P1;durP1;ratioP1;P2;durP2;ratioP2
45043;SDS011;30784;48.490;9.688;2023-02-23T00:01:00;15.57;;;8.18;;
45043;SDS011;30784;48.490;9.688;2023-02-23T00:03:35;16.50;;;8.05;;
45043;SDS011;30784;48.490;9.688;2023-02-23T00:06:01;15.50;;;8.00;;
45043;SDS011;30784;48.490;9.688;2023-02-23T00:08:27;13.40;;;7.40;;
45043;SDS011;30784;48.490;9.688;2023-02-23T00:10:53;14.02;;;6.30;;
45043;SDS011;30784;48.490;9.688;2023-02-23T00:13:22;10.98;;;6.13;;
45043;SDS011;30784;48.490;9.688;2023-02-23T00:15:48;12.13;;;6.30;;
45043;SDS011;30784;48.490;9.688;2023-02-23T00:18:13;13.75;;;7.15;;
45043;SDS011;30784;48.490;9.688;2023-02-23T00:20:41;13.82;;;6.53;;
45043;SDS011;30784;48.490;9.688;2023-02-23T00:23:11;12.20;;;5.82;;
45043;SDS011;30784;48.490;9.688;2023-02-23T00:25:38;10.45;;;5.38;;
45043;SDS011;30784;48.490;9.688;2023-02-23T00:28:09;10.70;;;5.55;;
45043;SDS011;30784;48.490;9.688;2023-02-23T00:30:35;10.55;;;5.10;;
45043;SDS011;30784;48.490;9.688;2023-02-23T00:33:01;10.32;;;4.95;;
45043;SDS011;30784;48.490;9.688;2023-02-23T00:35:27;10.88;;;5.20;;
45043;SDS011;30784;48.490;9.688;2023-02-23T00:37:52;9.95;;;4.90;;
45043;SDS011;30784;48.490;9.688;2023-02-23T00:40:18;11.02;;;4.80;;
45043;SDS011;30784;48.490;9.688;2023-02-23T00:42:48;18.45;;;9.13;;
45043;SDS011;30784;48.490;9.688;2023-02-23T00:45:19;16.48;;;9.43;;
45043;SDS011;30784;48.490;9.688;2023-02-23T00:47:45;12.63;;;5.88;;
45043;SDS011;30784;48.490;9.688;2023-02-23T00:50:14;11.23;;;5.32;;
45043;SDS011;30784;48.490;9.688;2023-02-23T00:52:42;11.80;;;5.30;;
45043;SDS011;30784;48.490;9.688;2023-02-23T00:55:11;11.65;;;4.72;;
45043;SDS011;30784;48.490;9.688;2023-02-23T00:57:37;10.32;;;4.65;;
45043;SDS011;30784;48.490;9.688;2023-02-23T01:00:04;11.50;;;5.03;;
45043;SDS011;30784;48.490;9.688;2023-02-23T01:02:43;10.90;;;5.13;;
45043;SDS011;30784;48.490;9.688;2023-02-23T01:05:11;9.80;;;4.90;;
45043;SDS011;30784;48.490;9.688;2023-02-23T01:07:38;11.32;;;5.22;;
45043;SDS011;30784;48.490;9.688;2023-02-23T01:10:04;10.98;;;5.40;;
45043;SDS011;30784;48.490;9.688;2023-02-23T01:12:44;10.18;;;5.07;;
45043;SDS011;30784;48.490;9.688;2023-02-23T01:15:11;12.07;;;5.43;;
45043;SDS011;30784;48.490;9.688;2023-02-23T01:17:36;11.75;;;5.60;;
45043;SDS011;30784;48.490;9.688;2023-02-23T01:20:04;12.10;;;5.20;;
45043;SDS011;30784;48.490;9.688;2023-02-23T01:22:47;11.32;;;5.43;;
45043;SDS011;30784;48.490;9.688;2023-02-23T01:25:14;12.27;;;6.40;;
45043;SDS011;30784;48.490;9.688;2023-02-23T01:27:40;12.40;;;6.93;;
45043;SDS011;30784;48.490;9.688;2023-02-23T01:30:08;13.25;;;7.05;;
45043;SDS011;30784;48.490;9.688;2023-02-23T01:32:35;13.23;;;6.70;;
45043;SDS011;30784;48.490;9.688;2023-02-23T01:35:02;12.82;;;7.50;;
45043;SDS011;30784;48.490;9.688;2023-02-23T01:37:41;13.00;;;7.35;;
45043;SDS011;30784;48.490;9.688;2023-02-23T01:40:09;15.88;;;7.85;;
45043;SDS011;30784;48.490;9.688;2023-02-23T01:42:39;13.07;;;7.88;;
45043;SDS011;30784;48.490;9.688;2023-02-23T01:48:00;12.30;;;7.03;;
45043;SDS011;30784;48.490;9.688;2023-02-23T01:50:31;12.38;;;7.07;;
45043;SDS011;30784;48.490;9.688;2023-02-23T01:53:05;14.77;;;7.47;;
45043;SDS011;30784;48.490;9.688;2023-02-23T01:55:34;12.10;;;6.60;;
45043;SDS011;30784;48.490;9.688;2023-02-23T01:58:03;13.45;;;7.05;;
45043;SDS011;30784;48.490;9.688;2023-02-23T02:00:32;13.45;;;7.40;;
45043;SDS011;30784;48.490;9.688;2023-02-23T02:03:01;14.35;;;8.02;;
45043;SDS011;30784;48.490;9.688;2023-02-23T02:05:32;13.68;;;7.70;;
45043;SDS011;30784;48.490;9.688;2023-02-23T02:08:00;14.20;;;7.53;;
45043;SDS011;30784;48.490;9.688;2023-02-23T02:10:27;15.75;;;8.38;;
45043;SDS011;30784;48.490;9.688;2023-02-23T02:13:06;13.57;;;6.97;;
45043;SDS011;30784;48.490;9.688;2023-02-23T02:15:34;14.35;;;7.53;;
45043;SDS011;30784;48.490;9.688;2023-02-23T02:18:16;14.73;;;7.93;;
45043;SDS011;30784;48.490;9.688;2023-02-23T02:37:51;16.15;;;8.25;;
45043;SDS011;30784;48.490;9.688;2023-02-23T02:46:15;15.95;;;8.15;;
45043;SDS011;30784;48.490;9.688;2023-02-23T02:48:58;13.55;;;7.30;;
45043;SDS011;30784;48.490;9.688;2023-02-23T02:51:39;13.05;;;7.53;;
45043;SDS011;30784;48.490;9.688;2023-02-23T02:54:19;15.30;;;7.45;;
45043;SDS011;30784;48.490;9.688;2023-02-23T02:56:52;12.98;;;7.63;;
45043;SDS011;30784;48.490;9.688;2023-02-23T02:59:21;15.90;;;8.00;;
45043;SDS011;30784;48.490;9.688;2023-02-23T03:02:08;15.18;;;7.90;;
45043;SDS011;30784;48.490;9.688;2023-02-23T03:05:01;15.35;;;7.65;;
45043;SDS011;30784;48.490;9.688;2023-02-23T03:20:20;16.75;;;8.90;;
45043;SDS011;30784;48.490;9.688;2023-02-23T03:26:06;16.40;;;9.15;;
45043;SDS011;30784;48.490;9.688;2023-02-23T03:34:45;18.92;;;10.52;;
45043;SDS011;30784;48.490;9.688;2023-02-23T03:37:47;18.85;;;11.10;;
45043;SDS011;30784;48.490;9.688;2023-02-23T03:40:39;18.00;;;9.57;;
45043;SDS011;30784;48.490;9.688;2023-02-23T03:43:27;20.23;;;10.95;;
45043;SDS011;30784;48.490;9.688;2023-02-23T03:46:17;18.30;;;10.50;;
45043;SDS011;30784;48.490;9.688;2023-02-23T03:49:03;19.33;;;11.15;;
45043;SDS011;30784;48.490;9.688;2023-02-23T03:51:52;18.58;;;11.30;;
45043;SDS011;30784;48.490;9.688;2023-02-23T03:54:46;20.00;;;11.07;;
45043;SDS011;30784;48.490;9.688;2023-02-23T03:57:37;21.38;;;12.15;;
45043;SDS011;30784;48.490;9.688;2023-02-23T04:00:28;21.95;;;12.57;;
45043;SDS011;30784;48.490;9.688;2023-02-23T04:03:15;20.90;;;11.57;;
45043;SDS011;30784;48.490;9.688;2023-02-23T04:06:00;20.98;;;11.88;;
45043;SDS011;30784;48.490;9.688;2023-02-23T04:08:49;21.60;;;11.77;;
45043;SDS011;30784;48.490;9.688;2023-02-23T04:11:39;21.88;;;11.52;;
45043;SDS011;30784;48.490;9.688;2023-02-23T04:14:50;17.65;;;11.00;;
45043;SDS011;30784;48.490;9.688;2023-02-23T04:17:31;16.60;;;9.95;;
45043;SDS011;30784;48.490;9.688;2023-02-23T04:19:57;19.23;;;11.63;;
45043;SDS011;30784;48.490;9.688;2023-02-23T04:22:23;19.17;;;12.05;;
45043;SDS011;30784;48.490;9.688;2023-02-23T04:24:49;18.08;;;11.32;;
45043;SDS011;30784;48.490;9.688;2023-02-23T04:27:15;19.35;;;11.02;;
45043;SDS011;30784;48.490;9.688;2023-02-23T04:29:41;18.98;;;10.93;;
45043;SDS011;30784;48.490;9.688;2023-02-23T04:32:09;19.25;;;10.35;;
45043;SDS011;30784;48.490;9.688;2023-02-23T04:34:38;19.00;;;10.80;;
45043;SDS011;30784;48.490;9.688;2023-02-23T04:37:04;18.80;;;10.70;;
45043;SDS011;30784;48.490;9.688;2023-02-23T04:39:29;16.13;;;9.85;;
45043;SDS011;30784;48.490;9.688;2023-02-23T04:41:55;16.85;;;10.55;;
45043;SDS011;30784;48.490;9.688;2023-02-23T04:44:20;20.55;;;11.30;;
45043;SDS011;30784;48.490;9.688;2023-02-23T04:46:46;17.40;;;10.18;;
45043;SDS011;30784;48.490;9.688;2023-02-23T04:49:11;19.50;;;10.57;;
45043;SDS011;30784;48.490;9.688;2023-02-23T04:51:37;18.00;;;10.68;;
45043;SDS011;30784;48.490;9.688;2023-02-23T04:54:03;17.33;;;10.05;;
45043;SDS011;30784;48.490;9.688;2023-02-23T04:56:29;16.95;;;9.27;;
45043;SDS011;30784;48.490;9.688;2023-02-23T04:58:55;15.73;;;9.38;;
45043;SDS011;30784;48.490;9.688;2023-02-23T05:01:20;17.83;;;9.57;;
45043;SDS011;30784;48.490;9.688;2023-02-23T05:03:49;19.00;;;10.25;;
45043;SDS011;30784;48.490;9.688;2023-02-23T05:06:15;20.17;;;10.82;;
45043;SDS011;30784;48.490;9.688;2023-02-23T05:08:41;17.60;;;10.77;;
45043;SDS011;30784;48.490;9.688;2023-02-23T05:11:07;18.05;;;10.70;;
45043;SDS011;30784;48.490;9.688;2023-02-23T05:13:33;21.38;;;12.35;;
45043;SDS011;30784;48.490;9.688;2023-02-23T05:15:59;18.60;;;11.15;;
45043;SDS011;30784;48.490;9.688;2023-02-23T05:18:25;20.00;;;10.60;;
45043;SDS011;30784;48.490;9.688;2023-02-23T05:20:51;18.52;;;10.45;;
45043;SDS011;30784;48.490;9.688;2023-02-23T05:23:18;19.13;;;11.02;;
45043;SDS011;30784;48.490;9.688;2023-02-23T05:25:45;16.75;;;10.20;;
45043;SDS011;30784;48.490;9.688;2023-02-23T05:28:11;18.75;;;10.65;;
45043;SDS011;30784;48.490;9.688;2023-02-23T05:30:36;18.13;;;10.52;;
45043;SDS011;30784;48.490;9.688;2023-02-23T05:33:02;18.75;;;11.38;;
45043;SDS011;30784;48.490;9.688;2023-02-23T05:35:27;17.17;;;10.48;;
45043;SDS011;30784;48.490;9.688;2023-02-23T05:37:53;19.60;;;12.02;;
45043;SDS011;30784;48.490;9.688;2023-02-23T05:40:19;17.73;;;11.20;;
45043;SDS011;30784;48.490;9.688;2023-02-23T05:42:45;19.92;;;11.32;;
45043;SDS011;30784;48.490;9.688;2023-02-23T05:45:10;18.65;;;10.35;;
45043;SDS011;30784;48.490;9.688;2023-02-23T05:47:36;18.15;;;11.13;;
45043;SDS011;30784;48.490;9.688;2023-02-23T05:50:06;18.85;;;11.55;;
45043;SDS011;30784;48.490;9.688;2023-02-23T05:52:36;19.15;;;11.27;;
45043;SDS011;30784;48.490;9.688;2023-02-23T05:55:05;18.83;;;11.25;;
45043;SDS011;30784;48.490;9.688;2023-02-23T05:57:31;17.67;;;11.07;;
45043;SDS011;30784;48.490;9.688;2023-02-23T05:59:57;17.70;;;10.98;;
45043;SDS011;30784;48.490;9.688;2023-02-23T06:02:22;19.58;;;11.38;;
45043;SDS011;30784;48.490;9.688;2023-02-23T06:04:48;18.70;;;10.32;;
45043;SDS011;30784;48.490;9.688;2023-02-23T06:07:13;17.35;;;10.90;;
45043;SDS011;30784;48.490;9.688;2023-02-23T06:09:39;19.05;;;11.38;;
45043;SDS011;30784;48.490;9.688;2023-02-23T06:12:05;18.05;;;10.25;;
45043;SDS011;30784;48.490;9.688;2023-02-23T06:14:30;17.15;;;10.88;;
45043;SDS011;30784;48.490;9.688;2023-02-23T06:16:57;16.80;;;9.88;;
45043;SDS011;30784;48.490;9.688;2023-02-23T06:19:24;16.83;;;9.70;;
45043;SDS011;30784;48.490;9.688;2023-02-23T06:21:49;18.05;;;9.88;;
45043;SDS011;30784;48.490;9.688;2023-02-23T06:24:16;17.42;;;9.43;;
45043;SDS011;30784;48.490;9.688;2023-02-23T06:26:43;16.17;;;9.30;;
45043;SDS011;30784;48.490;9.688;2023-02-23T06:29:09;18.73;;;9.85;;
45043;SDS011;30784;48.490;9.688;2023-02-23T06:31:35;16.88;;;10.55;;
45043;SDS011;30784;48.490;9.688;2023-02-23T06:34:01;16.27;;;10.43;;
45043;SDS011;30784;48.490;9.688;2023-02-23T06:36:27;17.92;;;10.35;;
45043;SDS011;30784;48.490;9.688;2023-02-23T06:38:54;18.67;;;10.82;;
45043;SDS011;30784;48.490;9.688;2023-02-23T06:41:23;19.27;;;10.75;;
45043;SDS011;30784;48.490;9.688;2023-02-23T06:43:50;17.27;;;10.25;;
45043;SDS011;30784;48.490;9.688;2023-02-23T06:46:15;16.38;;;10.40;;
45043;SDS011;30784;48.490;9.688;2023-02-23T06:48:41;16.55;;;9.95;;
45043;SDS011;30784;48.490;9.688;2023-02-23T06:51:07;17.48;;;10.30;;
45043;SDS011;30784;48.490;9.688;2023-02-23T06:53:33;17.75;;;10.18;;
45043;SDS011;30784;48.490;9.688;2023-02-23T06:55:59;15.85;;;9.50;;
45043;SDS011;30784;48.490;9.688;2023-02-23T06:58:25;17.35;;;10.27;;
45043;SDS011;30784;48.490;9.688;2023-02-23T07:00:53;18.23;;;10.90;;
45043;SDS011;30784;48.490;9.688;2023-02-23T07:03:20;17.60;;;10.32;;
45043;SDS011;30784;48.490;9.688;2023-02-23T07:05:49;18.33;;;9.85;;
45043;SDS011;30784;48.490;9.688;2023-02-23T07:08:15;17.58;;;9.80;;
45043;SDS011;30784;48.490;9.688;2023-02-23T07:10:42;16.35;;;9.68;;
45043;SDS011;30784;48.490;9.688;2023-02-23T07:13:08;16.73;;;9.32;;
45043;SDS011;30784;48.490;9.688;2023-02-23T07:15:36;15.50;;;9.15;;
45043;SDS011;30784;48.490;9.688;2023-02-23T07:18:02;16.17;;;9.63;;
45043;SDS011;30784;48.490;9.688;2023-02-23T07:20:28;16.58;;;8.85;;
45043;SDS011;30784;48.490;9.688;2023-02-23T07:22:55;17.30;;;9.55;;
45043;SDS011;30784;48.490;9.688;2023-02-23T07:25:21;15.75;;;9.23;;
45043;SDS011;30784;48.490;9.688;2023-02-23T07:27:46;15.90;;;8.88;;
45043;SDS011;30784;48.490;9.688;2023-02-23T07:30:12;15.40;;;9.07;;
45043;SDS011;30784;48.490;9.688;2023-02-23T07:32:38;15.68;;;9.25;;
45043;SDS011;30784;48.490;9.688;2023-02-23T07:35:04;20.20;;;12.38;;
45043;SDS011;30784;48.490;9.688;2023-02-23T07:37:30;17.48;;;10.63;;
45043;SDS011;30784;48.490;9.688;2023-02-23T07:39:56;15.50;;;9.30;;
45043;SDS011;30784;48.490;9.688;2023-02-23T07:42:21;18.13;;;9.82;;
45043;SDS011;30784;48.490;9.688;2023-02-23T07:44:47;16.15;;;8.80;;
45043;SDS011;30784;48.490;9.688;2023-02-23T07:47:13;15.38;;;9.48;;
45043;SDS011;30784;48.490;9.688;2023-02-23T07:49:38;15.48;;;9.23;;
45043;SDS011;30784;48.490;9.688;2023-02-23T07:52:04;16.52;;;9.25;;
45043;SDS011;30784;48.490;9.688;2023-02-23T07:54:29;14.45;;;8.43;;
45043;SDS011;30784;48.490;9.688;2023-02-23T07:56:55;13.15;;;7.68;;
45043;SDS011;30784;48.490;9.688;2023-02-23T07:59:21;13.50;;;7.72;;
45043;SDS011;30784;48.490;9.688;2023-02-23T08:01:46;14.75;;;8.20;;
45043;SDS011;30784;48.490;9.688;2023-02-23T08:04:12;13.85;;;8.02;;
45043;SDS011;30784;48.490;9.688;2023-02-23T08:06:38;14.05;;;7.65;;
45043;SDS011;30784;48.490;9.688;2023-02-23T08:09:04;13.63;;;8.02;;
45043;SDS011;30784;48.490;9.688;2023-02-23T08:11:29;14.15;;;7.72;;
45043;SDS011;30784;48.490;9.688;2023-02-23T08:13:55;13.85;;;7.68;;
45043;SDS011;30784;48.490;9.688;2023-02-23T08:16:28;11.10;;;6.23;;
45043;SDS011;30784;48.490;9.688;2023-02-23T08:18:55;12.05;;;7.05;;
45043;SDS011;30784;48.490;9.688;2023-02-23T08:21:25;13.60;;;7.07;;
45043;SDS011;30784;48.490;9.688;2023-02-23T08:23:53;11.57;;;6.18;;
45043;SDS011;30784;48.490;9.688;2023-02-23T08:26:19;13.07;;;7.65;;
45043;SDS011;30784;48.490;9.688;2023-02-23T08:28:45;13.05;;;6.90;;
45043;SDS011;30784;48.490;9.688;2023-02-23T08:31:11;11.98;;;6.40;;
45043;SDS011;30784;48.490;9.688;2023-02-23T08:33:38;13.65;;;7.32;;
45043;SDS011;30784;48.490;9.688;2023-02-23T08:36:07;12.70;;;6.78;;
45043;SDS011;30784;48.490;9.688;2023-02-23T08:38:33;11.77;;;6.72;;
45043;SDS011;30784;48.490;9.688;2023-02-23T08:41:04;12.30;;;6.47;;
45043;SDS011;30784;48.490;9.688;2023-02-23T08:43:30;12.63;;;6.43;;
45043;SDS011;30784;48.490;9.688;2023-02-23T08:45:56;11.40;;;6.20;;
45043;SDS011;30784;48.490;9.688;2023-02-23T08:48:22;9.80;;;5.22;;
45043;SDS011;30784;48.490;9.688;2023-02-23T08:50:48;13.10;;;6.15;;
45043;SDS011;30784;48.490;9.688;2023-02-23T08:53:17;10.63;;;5.57;;
45043;SDS011;30784;48.490;9.688;2023-02-23T08:55:43;9.73;;;4.70;;
45043;SDS011;30784;48.490;9.688;2023-02-23T08:58:09;9.73;;;5.13;;
45043;SDS011;30784;48.490;9.688;2023-02-23T09:00:38;10.63;;;5.10;;
45043;SDS011;30784;48.490;9.688;2023-02-23T09:03:04;9.95;;;4.57;;
45043;SDS011;30784;48.490;9.688;2023-02-23T09:05:35;10.18;;;4.72;;
45043;SDS011;30784;48.490;9.688;2023-02-23T09:08:02;9.55;;;4.43;;
45043;SDS011;30784;48.490;9.688;2023-02-23T09:10:27;10.20;;;4.25;;
45043;SDS011;30784;48.490;9.688;2023-02-23T09:12:53;11.48;;;4.68;;
45043;SDS011;30784;48.490;9.688;2023-02-23T09:15:19;10.38;;;4.18;;
45043;SDS011;30784;48.490;9.688;2023-02-23T09:17:46;9.13;;;3.90;;
45043;SDS011;30784;48.490;9.688;2023-02-23T09:20:12;8.48;;;3.80;;
45043;SDS011;30784;48.490;9.688;2023-02-23T09:22:39;11.48;;;4.63;;
45043;SDS011;30784;48.490;9.688;2023-02-23T09:25:09;9.40;;;3.70;;
45043;SDS011;30784;48.490;9.688;2023-02-23T09:27:36;8.77;;;3.88;;
45043;SDS011;30784;48.490;9.688;2023-02-23T09:30:02;9.68;;;3.92;;
45043;SDS011;30784;48.490;9.688;2023-02-23T09:32:28;10.35;;;4.10;;
45043;SDS011;30784;48.490;9.688;2023-02-23T09:34:54;9.23;;;3.70;;
45043;SDS011;30784;48.490;9.688;2023-02-23T09:37:19;9.68;;;3.90;;
45043;SDS011;30784;48.490;9.688;2023-02-23T09:39:45;9.93;;;3.58;;
45043;SDS011;30784;48.490;9.688;2023-02-23T09:42:15;9.77;;;4.28;;
45043;SDS011;30784;48.490;9.688;2023-02-23T09:44:53;8.48;;;4.10;;
45043;SDS011;30784;48.490;9.688;2023-02-23T09:50:24;10.98;;;3.50;;
45043;SDS011;30784;48.490;9.688;2023-02-23T09:52:58;11.15;;;3.50;;
45043;SDS011;30784;48.490;9.688;2023-02-23T09:55:31;9.88;;;3.80;;
45043;SDS011;30784;48.490;9.688;2023-02-23T09:58:01;10.18;;;3.83;;
45043;SDS011;30784;48.490;9.688;2023-02-23T10:00:30;10.60;;;3.88;;
45043;SDS011;30784;48.490;9.688;2023-02-23T10:05:47;9.65;;;3.60;;
45043;SDS011;30784;48.490;9.688;2023-02-23T10:08:19;10.43;;;3.72;;
45043;SDS011;30784;48.490;9.688;2023-02-23T10:11:16;10.18;;;4.07;;
45043;SDS011;30784;48.490;9.688;2023-02-23T10:14:03;9.43;;;3.88;;
45043;SDS011;30784;48.490;9.688;2023-02-23T10:22:10;8.43;;;3.50;;
45043;SDS011;30784;48.490;9.688;2023-02-23T10:24:39;9.48;;;3.45;;
45043;SDS011;30784;48.490;9.688;2023-02-23T10:27:09;9.98;;;3.35;;
45043;SDS011;30784;48.490;9.688;2023-02-23T10:29:45;8.35;;;3.10;;
45043;SDS011;30784;48.490;9.688;2023-02-23T10:35:07;10.82;;;3.83;;
45043;SDS011;30784;48.490;9.688;2023-02-23T10:37:35;9.57;;;3.42;;
45043;SDS011;30784;48.490;9.688;2023-02-23T10:40:02;9.50;;;4.25;;
45043;SDS011;30784;48.490;9.688;2023-02-23T10:42:30;11.27;;;4.75;;
45043;SDS011;30784;48.490;9.688;2023-02-23T10:44:56;13.88;;;5.15;;
45043;SDS011;30784;48.490;9.688;2023-02-23T10:47:24;10.30;;;4.45;;
45043;SDS011;30784;48.490;9.688;2023-02-23T10:49:52;8.82;;;3.80;;
45043;SDS011;30784;48.490;9.688;2023-02-23T10:52:20;9.23;;;3.80;;
45043;SDS011;30784;48.490;9.688;2023-02-23T10:54:51;11.25;;;4.25;;
45043;SDS011;30784;48.490;9.688;2023-02-23T11:00:00;12.20;;;4.75;;
45043;SDS011;30784;48.490;9.688;2023-02-23T11:02:51;10.95;;;4.53;;
45043;SDS011;30784;48.490;9.688;2023-02-23T11:05:34;12.48;;;5.15;;
45043;SDS011;30784;48.490;9.688;2023-02-23T11:08:27;12.63;;;5.47;;
45043;SDS011;30784;48.490;9.688;2023-02-23T11:11:16;9.82;;;4.53;;
45043;SDS011;30784;48.490;9.688;2023-02-23T11:13:49;10.07;;;4.70;;
45043;SDS011;30784;48.490;9.688;2023-02-23T11:16:16;11.40;;;4.78;;
45043;SDS011;30784;48.490;9.688;2023-02-23T11:23:57;9.25;;;3.70;;
45043;SDS011;30784;48.490;9.688;2023-02-23T11:26:36;12.60;;;4.32;;
45043;SDS011;30784;48.490;9.688;2023-02-23T11:29:10;9.18;;;3.90;;
45043;SDS011;30784;48.490;9.688;2023-02-23T11:31:39;12.40;;;5.50;;
45043;SDS011;30784;48.490;9.688;2023-02-23T11:34:10;15.48;;;6.32;;
45043;SDS011;30784;48.490;9.688;2023-02-23T11:36:47;11.52;;;4.90;;
45043;SDS011;30784;48.490;9.688;2023-02-23T11:39:22;10.27;;;4.30;;
45043;SDS011;30784;48.490;9.688;2023-02-23T11:42:09;10.35;;;4.15;;
45043;SDS011;30784;48.490;9.688;2023-02-23T11:44:50;8.60;;;3.70;;
45043;SDS011;30784;48.490;9.688;2023-02-23T11:47:30;11.15;;;4.60;;
45043;SDS011;30784;48.490;9.688;2023-02-23T11:49:58;9.07;;;3.38;;
45043;SDS011;30784;48.490;9.688;2023-02-23T11:52:25;10.00;;;2.78;;
45043;SDS011;30784;48.490;9.688;2023-02-23T11:59:48;7.05;;;2.45;;
45043;SDS011;30784;48.490;9.688;2023-02-23T12:02:23;9.32;;;2.58;;
45043;SDS011;30784;48.490;9.688;2023-02-23T12:05:01;7.40;;;2.05;;
45043;SDS011;30784;48.490;9.688;2023-02-23T12:10:04;7.60;;;2.60;;
45043;SDS011;30784;48.490;9.688;2023-02-23T12:12:42;8.57;;;2.50;;
45043;SDS011;30784;48.490;9.688;2023-02-23T12:18:02;8.10;;;2.20;;
45043;SDS011;30784;48.490;9.688;2023-02-23T12:20:33;7.43;;;2.13;;
45043;SDS011;30784;48.490;9.688;2023-02-23T12:23:06;7.00;;;2.30;;
45043;SDS011;30784;48.490;9.688;2023-02-23T12:25:50;9.13;;;2.10;;
45043;SDS011;30784;48.490;9.688;2023-02-23T12:28:36;7.57;;;2.20;;
45043;SDS011;30784;48.490;9.688;2023-02-23T12:31:34;8.10;;;2.10;;
45043;SDS011;30784;48.490;9.688;2023-02-23T12:34:24;6.63;;;2.10;;
45043;SDS011;30784;48.490;9.688;2023-02-23T12:36:56;10.60;;;2.53;;
45043;SDS011;30784;48.490;9.688;2023-02-23T12:39:26;9.20;;;2.53;;
45043;SDS011;30784;48.490;9.688;2023-02-23T12:42:03;6.82;;;2.15;;
45043;SDS011;30784;48.490;9.688;2023-02-23T12:44:34;8.43;;;2.28;;
45043;SDS011;30784;48.490;9.688;2023-02-23T12:47:19;8.07;;;2.50;;
45043;SDS011;30784;48.490;9.688;2023-02-23T12:49:55;7.72;;;2.50;;
45043;SDS011;30784;48.490;9.688;2023-02-23T12:52:39;7.13;;;2.28;;
45043;SDS011;30784;48.490;9.688;2023-02-23T12:55:13;6.57;;;2.17;;
45043;SDS011;30784;48.490;9.688;2023-02-23T13:03:04;6.22;;;2.28;;
45043;SDS011;30784;48.490;9.688;2023-02-23T13:08:24;8.55;;;2.35;;
45043;SDS011;30784;48.490;9.688;2023-02-23T13:14:21;8.30;;;2.40;;
45043;SDS011;30784;48.490;9.688;2023-02-23T13:16:51;10.45;;;2.38;;
45043;SDS011;30784;48.490;9.688;2023-02-23T13:19:49;7.40;;;2.42;;
45043;SDS011;30784;48.490;9.688;2023-02-23T13:22:34;7.65;;;2.22;;
45043;SDS011;30784;48.490;9.688;2023-02-23T13:25:14;9.95;;;3.28;;
45043;SDS011;30784;48.490;9.688;2023-02-23T13:27:50;8.95;;;2.50;;
45043;SDS011;30784;48.490;9.688;2023-02-23T13:30:20;9.88;;;2.40;;
45043;SDS011;30784;48.490;9.688;2023-02-23T13:32:46;7.55;;;2.45;;
45043;SDS011;30784;48.490;9.688;2023-02-23T13:35:14;8.45;;;2.67;;
45043;SDS011;30784;48.490;9.688;2023-02-23T13:37:49;7.18;;;2.50;;
45043;SDS011;30784;48.490;9.688;2023-02-23T13:40:28;7.78;;;2.33;;
45043;SDS011;30784;48.490;9.688;2023-02-23T13:45:55;7.20;;;2.30;;
45043;SDS011;30784;48.490;9.688;2023-02-23T13:51:22;8.00;;;2.55;;
45043;SDS011;30784;48.490;9.688;2023-02-23T13:58:53;9.07;;;2.65;;
45043;SDS011;30784;48.490;9.688;2023-02-23T14:01:32;8.30;;;2.47;;
45043;SDS011;30784;48.490;9.688;2023-02-23T14:04:02;8.23;;;2.35;;
45043;SDS011;30784;48.490;9.688;2023-02-23T14:06:36;7.88;;;2.35;;
45043;SDS011;30784;48.490;9.688;2023-02-23T14:09:08;8.23;;;2.28;;
45043;SDS011;30784;48.490;9.688;2023-02-23T14:11:55;8.43;;;2.35;;
45043;SDS011;30784;48.490;9.688;2023-02-23T14:19:43;8.55;;;2.33;;
45043;SDS011;30784;48.490;9.688;2023-02-23T14:22:28;9.18;;;2.53;;
45043;SDS011;30784;48.490;9.688;2023-02-23T14:27:57;7.63;;;2.90;;
45043;SDS011;30784;48.490;9.688;2023-02-23T14:30:43;9.25;;;3.22;;
45043;SDS011;30784;48.490;9.688;2023-02-23T14:39:03;9.25;;;3.30;;
45043;SDS011;30784;48.490;9.688;2023-02-23T14:44:26;10.63;;;3.25;;
45043;SDS011;30784;48.490;9.688;2023-02-23T14:47:00;9.00;;;3.20;;
45043;SDS011;30784;48.490;9.688;2023-02-23T14:49:31;10.50;;;3.53;;
45043;SDS011;30784;48.490;9.688;2023-02-23T14:52:07;11.70;;;3.85;;
45043;SDS011;30784;48.490;9.688;2023-02-23T14:54:39;9.85;;;3.47;;
45043;SDS011;30784;48.490;9.688;2023-02-23T14:57:13;12.63;;;4.25;;
45043;SDS011;30784;48.490;9.688;2023-02-23T14:59:57;10.45;;;3.22;;
45043;SDS011;30784;48.490;9.688;2023-02-23T15:02:25;7.88;;;2.55;;
45043;SDS011;30784;48.490;9.688;2023-02-23T15:04:53;8.93;;;3.13;;
45043;SDS011;30784;48.490;9.688;2023-02-23T15:09:55;10.35;;;3.30;;
45043;SDS011;30784;48.490;9.688;2023-02-23T15:12:23;9.02;;;3.47;;
45043;SDS011;30784;48.490;9.688;2023-02-23T15:14:55;9.57;;;3.80;;
45043;SDS011;30784;48.490;9.688;2023-02-23T15:17:26;12.98;;;3.53;;
45043;SDS011;30784;48.490;9.688;2023-02-23T15:20:05;8.15;;;3.10;;
45043;SDS011;30784;48.490;9.688;2023-02-23T15:22:37;9.65;;;3.88;;
45043;SDS011;30784;48.490;9.688;2023-02-23T15:25:51;10.65;;;3.47;;
45043;SDS011;30784;48.490;9.688;2023-02-23T15:27:59;10.07;;;3.65;;
45043;SDS011;30784;48.490;9.688;2023-02-23T15:30:45;9.07;;;3.15;;
45043;SDS011;30784;48.490;9.688;2023-02-23T15:33:13;9.55;;;3.33;;
45043;SDS011;30784;48.490;9.688;2023-02-23T15:35:48;9.05;;;3.28;;
45043;SDS011;30784;48.490;9.688;2023-02-23T15:38:20;9.25;;;3.00;;
45043;SDS011;30784;48.490;9.688;2023-02-23T15:40:55;7.40;;;2.70;;
45043;SDS011;30784;48.490;9.688;2023-02-23T15:43:23;10.80;;;4.68;;
45043;SDS011;30784;48.490;9.688;2023-02-23T15:45:50;11.32;;;3.90;;
45043;SDS011;30784;48.490;9.688;2023-02-23T15:48:21;9.32;;;3.60;;
45043;SDS011;30784;48.490;9.688;2023-02-23T15:50:53;10.05;;;3.88;;
45043;SDS011;30784;48.490;9.688;2023-02-23T15:53:37;11.00;;;3.42;;
45043;SDS011;30784;48.490;9.688;2023-02-23T15:56:24;10.00;;;3.00;;
45043;SDS011;30784;48.490;9.688;2023-02-23T15:58:54;9.90;;;2.45;;
45043;SDS011;30784;48.490;9.688;2023-02-23T16:01:26;7.05;;;2.10;;
45043;SDS011;30784;48.490;9.688;2023-02-23T16:03:55;7.18;;;2.50;;
45043;SDS011;30784;48.490;9.688;2023-02-23T16:06:34;6.97;;;2.50;;
45043;SDS011;30784;48.490;9.688;2023-02-23T16:11:48;8.05;;;2.42;;
45043;SDS011;30784;48.490;9.688;2023-02-23T16:14:21;6.38;;;2.17;;
45043;SDS011;30784;48.490;9.688;2023-02-23T16:16:47;7.65;;;2.00;;
45043;SDS011;30784;48.490;9.688;2023-02-23T16:19:16;6.40;;;1.90;;
45043;SDS011;30784;48.490;9.688;2023-02-23T16:21:50;6.93;;;2.20;;
45043;SDS011;30784;48.490;9.688;2023-02-23T16:24:18;5.95;;;2.03;;
45043;SDS011;30784;48.490;9.688;2023-02-23T16:26:48;7.95;;;2.58;;
45043;SDS011;30784;48.490;9.688;2023-02-23T16:31:58;6.95;;;2.60;;
45043;SDS011;30784;48.490;9.688;2023-02-23T16:36:59;8.13;;;2.83;;
45043;SDS011;30784;48.490;9.688;2023-02-23T16:39:28;6.72;;;2.42;;
45043;SDS011;30784;48.490;9.688;2023-02-23T16:41:56;7.70;;;2.55;;
45043;SDS011;30784;48.490;9.688;2023-02-23T16:44:26;9.25;;;3.05;;
45043;SDS011;30784;48.490;9.688;2023-02-23T16:46:54;12.88;;;4.78;;
45043;SDS011;30784;48.490;9.688;2023-02-23T16:49:26;11.65;;;5.10;;
45043;SDS011;30784;48.490;9.688;2023-02-23T16:51:56;12.18;;;4.20;;
45043;SDS011;30784;48.490;9.688;2023-02-23T16:54:22;9.82;;;3.78;;
45043;SDS011;30784;48.490;9.688;2023-02-23T16:56:48;10.30;;;3.47;;
45043;SDS011;30784;48.490;9.688;2023-02-23T16:59:15;7.72;;;2.88;;
45043;SDS011;30784;48.490;9.688;2023-02-23T17:01:52;11.32;;;3.15;;
45043;SDS011;30784;48.490;9.688;2023-02-23T17:04:19;7.97;;;2.60;;
45043;SDS011;30784;48.490;9.688;2023-02-23T17:06:45;10.55;;;3.78;;
45043;SDS011;30784;48.490;9.688;2023-02-23T17:09:19;11.70;;;4.13;;